METAR Analyzer

一覧表示

Hello, Guest. (Login)

YSSY/SYD  -  シドニー・キングスフォード・スミス

観測日時
2021-08-05 01:30 (UTC) (32分前)
気温
17
露点
4
湿数
13
相対湿度
42%
QNH
1016hPa
推定現地気圧
1015.3hPa
推定海面気圧
1016.0hPa
体感温度
7
(無風時)
17.3
HI
15.9
気温前日比
+3
体感温度前日比
+4.5
HI前日比
+3.6
水平視程
>10000m
鉛直視程
データなし
雲底高度
No dense clouds
V/I
VMC (VFR)
RVR
No RVR data
卓越風
16kt from 250°
ガスト
No gust
降水
報告なし
その他の天気
報告なし
少しの雲 @ 3500ft AGL

YSSY 050130Z 25016KT 9999 FEW035 17/04 Q1016

NZAA/AKL  -  Auckland

観測日時
2021-08-05 01:30 (UTC) (32分前)
気温
15
露点
12
湿数
3
相対湿度
82.2%
QNH
1000hPa
推定現地気圧
999.2hPa
推定海面気圧
1000.0hPa
体感温度
5.6
(無風時)
16.8
HI
14.7
気温前日比
+1
体感温度前日比
+1
HI前日比
+1.6
水平視程
>10000m / 一時 5000m
鉛直視程
データなし
雲底高度
7000ft AGL
V/I
VMC (VFR)
RVR
No RVR data
卓越風
10kt from 330° (310° ~ 10°)
ガスト
No gust
降水
弱い雨
降水 (一時)
中程度のしゅう雨性の雨
その他の天気
報告なし
隙間のある雲 @ 7000ft AGL

NZAA 050130Z AUTO 33010KT 310V010 9999 -RA BKN070/// 15/12 Q1000 TEMPO TL0200 5000 SHRA FEW020TCU

NZWN/WLG  -  Wellington

観測日時
2021-08-05 01:30 (UTC) (32分前)
気温
9
露点
9
湿数
0
相対湿度
100%
QNH
998hPa
推定現地気圧
996.5hPa
推定海面気圧
998.1hPa
体感温度
1.1
(無風時)
11.7
HI
8.6
気温前日比
-2
体感温度前日比
+0.7
HI前日比
-1.1
水平視程
>10000m
鉛直視程
データなし
雲底高度
2000ft AGL
V/I
VMC (VFR)
RVR
No RVR data
卓越風
4kt from 350° (320° ~ 90°)
ガスト
No gust
降水
弱い雨
その他の天気
報告なし
隙間のある雲 @ 2000ft AGL / 隙間のある雲 @ 2500ft AGL

NZWN 050130Z AUTO 35004KT 320V090 9999 -RA BKN020/// BKN025/// 09/09 Q0998 NOSIG

NZCH/CHC  -  Christchurch

観測日時
2021-08-05 01:30 (UTC) (32分前)
気温
10
露点
7
湿数
3
相対湿度
81.6%
QNH
994hPa
推定現地気圧
989.6hPa
推定海面気圧
994.0hPa
体感温度
-2.2
(無風時)
12.7
HI
9.2
気温前日比
±0
体感温度前日比
-8.3
HI前日比
+0.5
水平視程
>10000m
鉛直視程
データなし
雲底高度
10000ft AGL
V/I
VMC (VFR)
RVR
No RVR data
卓越風
13kt from 60°
ガスト
No gust
降水
報告なし
その他の天気
報告なし
隙間のある雲 @ 10000ft AGL

NZCH 050130Z AUTO 06013KT 9999 BKN100/// 10/07 Q0994 NOSIG

NZQN/ZQN  -  Queenstown